sensor_id;sensor_type;location;lat;lon;timestamp;temperature;humidity
3994;DHT22;2011;48.238;13.948;2022-11-14T00:00:43;7.70;99.90
3994;DHT22;2011;48.238;13.948;2022-11-14T00:03:11;7.70;99.90
3994;DHT22;2011;48.238;13.948;2022-11-14T00:05:39;7.70;99.90
3994;DHT22;2011;48.238;13.948;2022-11-14T00:08:08;7.70;99.90
3994;DHT22;2011;48.238;13.948;2022-11-14T00:10:40;7.70;99.90
3994;DHT22;2011;48.238;13.948;2022-11-14T00:13:07;7.70;99.90
3994;DHT22;2011;48.238;13.948;2022-11-14T00:15:34;7.70;99.90
3994;DHT22;2011;48.238;13.948;2022-11-14T00:18:01;7.60;99.90
3994;DHT22;2011;48.238;13.948;2022-11-14T00:20:28;7.70;99.90
3994;DHT22;2011;48.238;13.948;2022-11-14T00:22:55;7.60;99.90
3994;DHT22;2011;48.238;13.948;2022-11-14T00:25:22;7.60;99.90
3994;DHT22;2011;48.238;13.948;2022-11-14T00:27:50;7.60;99.90
3994;DHT22;2011;48.238;13.948;2022-11-14T00:30:17;7.50;99.90
3994;DHT22;2011;48.238;13.948;2022-11-14T00:32:44;7.50;99.90
3994;DHT22;2011;48.238;13.948;2022-11-14T00:35:11;7.50;99.90
3994;DHT22;2011;48.238;13.948;2022-11-14T00:37:38;7.50;99.90
3994;DHT22;2011;48.238;13.948;2022-11-14T00:40:06;7.50;99.90
3994;DHT22;2011;48.238;13.948;2022-11-14T00:42:33;7.50;99.90
3994;DHT22;2011;48.238;13.948;2022-11-14T00:45:01;7.50;99.90
3994;DHT22;2011;48.238;13.948;2022-11-14T00:47:28;7.50;99.90
3994;DHT22;2011;48.238;13.948;2022-11-14T00:49:55;7.50;99.90
3994;DHT22;2011;48.238;13.948;2022-11-14T00:52:22;7.40;99.90
3994;DHT22;2011;48.238;13.948;2022-11-14T00:54:49;7.40;99.90
3994;DHT22;2011;48.238;13.948;2022-11-14T00:57:16;7.40;99.90
3994;DHT22;2011;48.238;13.948;2022-11-14T00:59:43;7.50;99.90
3994;DHT22;2011;48.238;13.948;2022-11-14T01:02:11;7.50;99.90
3994;DHT22;2011;48.238;13.948;2022-11-14T01:04:38;7.50;99.90
3994;DHT22;2011;48.238;13.948;2022-11-14T01:07:05;7.50;99.90
3994;DHT22;2011;48.238;13.948;2022-11-14T01:09:32;7.50;99.90
3994;DHT22;2011;48.238;13.948;2022-11-14T01:11:59;7.50;99.90
3994;DHT22;2011;48.238;13.948;2022-11-14T01:14:25;7.40;99.90
3994;DHT22;2011;48.238;13.948;2022-11-14T01:16:52;7.40;99.90
3994;DHT22;2011;48.238;13.948;2022-11-14T01:19:20;7.50;99.90
3994;DHT22;2011;48.238;13.948;2022-11-14T01:21:47;7.40;99.90
3994;DHT22;2011;48.238;13.948;2022-11-14T01:24:14;7.40;99.90
3994;DHT22;2011;48.238;13.948;2022-11-14T01:26:41;7.40;99.90
3994;DHT22;2011;48.238;13.948;2022-11-14T01:29:08;7.40;99.90
3994;DHT22;2011;48.238;13.948;2022-11-14T01:31:35;7.30;99.90
3994;DHT22;2011;48.238;13.948;2022-11-14T01:34:02;7.30;99.90
3994;DHT22;2011;48.238;13.948;2022-11-14T01:36:30;7.30;99.90
3994;DHT22;2011;48.238;13.948;2022-11-14T01:38:57;7.30;99.90
3994;DHT22;2011;48.238;13.948;2022-11-14T01:41:24;7.30;99.90
3994;DHT22;2011;48.238;13.948;2022-11-14T01:43:51;7.30;99.90
3994;DHT22;2011;48.238;13.948;2022-11-14T01:46:21;7.20;99.90
3994;DHT22;2011;48.238;13.948;2022-11-14T01:48:51;7.20;99.90
3994;DHT22;2011;48.238;13.948;2022-11-14T01:51:24;7.20;99.90
3994;DHT22;2011;48.238;13.948;2022-11-14T01:53:54;7.20;99.90
3994;DHT22;2011;48.238;13.948;2022-11-14T01:56:25;7.20;99.90
3994;DHT22;2011;48.238;13.948;2022-11-14T01:58:55;7.20;99.90
3994;DHT22;2011;48.238;13.948;2022-11-14T02:01:24;7.20;99.90
3994;DHT22;2011;48.238;13.948;2022-11-14T02:03:52;7.20;99.90
3994;DHT22;2011;48.238;13.948;2022-11-14T02:06:21;7.20;99.90
3994;DHT22;2011;48.238;13.948;2022-11-14T02:08:49;7.20;99.90
3994;DHT22;2011;48.238;13.948;2022-11-14T02:11:18;7.20;99.90
3994;DHT22;2011;48.238;13.948;2022-11-14T02:13:45;7.20;99.90
3994;DHT22;2011;48.238;13.948;2022-11-14T02:16:12;7.20;99.90
3994;DHT22;2011;48.238;13.948;2022-11-14T02:18:39;7.20;99.90
3994;DHT22;2011;48.238;13.948;2022-11-14T02:21:07;7.20;99.90
3994;DHT22;2011;48.238;13.948;2022-11-14T02:23:34;7.10;99.90
3994;DHT22;2011;48.238;13.948;2022-11-14T02:26:01;7.10;99.90
3994;DHT22;2011;48.238;13.948;2022-11-14T02:28:28;7.20;99.90
3994;DHT22;2011;48.238;13.948;2022-11-14T02:30:55;7.10;99.90
3994;DHT22;2011;48.238;13.948;2022-11-14T02:33:22;7.10;99.90
3994;DHT22;2011;48.238;13.948;2022-11-14T02:35:49;7.10;99.90
3994;DHT22;2011;48.238;13.948;2022-11-14T02:38:17;7.00;99.90
3994;DHT22;2011;48.238;13.948;2022-11-14T02:40:44;7.00;99.90
3994;DHT22;2011;48.238;13.948;2022-11-14T02:43:11;7.00;99.90
3994;DHT22;2011;48.238;13.948;2022-11-14T02:45:38;7.00;99.90
3994;DHT22;2011;48.238;13.948;2022-11-14T02:48:05;7.00;99.90
3994;DHT22;2011;48.238;13.948;2022-11-14T02:50:32;7.00;99.90
3994;DHT22;2011;48.238;13.948;2022-11-14T02:52:59;7.00;99.90
3994;DHT22;2011;48.238;13.948;2022-11-14T02:55:27;7.00;99.90
3994;DHT22;2011;48.238;13.948;2022-11-14T02:57:54;7.00;99.90
3994;DHT22;2011;48.238;13.948;2022-11-14T03:00:21;7.10;99.90
3994;DHT22;2011;48.238;13.948;2022-11-14T03:02:48;7.10;99.90
3994;DHT22;2011;48.238;13.948;2022-11-14T03:05:15;7.10;99.90
3994;DHT22;2011;48.238;13.948;2022-11-14T03:07:42;7.10;99.90
3994;DHT22;2011;48.238;13.948;2022-11-14T03:10:09;7.10;99.90
3994;DHT22;2011;48.238;13.948;2022-11-14T03:12:37;7.10;99.90
3994;DHT22;2011;48.238;13.948;2022-11-14T03:15:05;7.10;99.90
3994;DHT22;2011;48.238;13.948;2022-11-14T03:17:33;7.10;99.90
3994;DHT22;2011;48.238;13.948;2022-11-14T03:20:00;7.00;99.90
3994;DHT22;2011;48.238;13.948;2022-11-14T03:22:27;7.00;99.90
3994;DHT22;2011;48.238;13.948;2022-11-14T03:24:54;7.00;99.90
3994;DHT22;2011;48.238;13.948;2022-11-14T03:27:21;6.90;99.90
3994;DHT22;2011;48.238;13.948;2022-11-14T03:29:49;6.90;99.90
3994;DHT22;2011;48.238;13.948;2022-11-14T03:32:16;6.80;99.90
3994;DHT22;2011;48.238;13.948;2022-11-14T03:34:43;6.80;99.90
3994;DHT22;2011;48.238;13.948;2022-11-14T03:37:10;6.80;99.90
3994;DHT22;2011;48.238;13.948;2022-11-14T03:39:36;6.80;99.90
3994;DHT22;2011;48.238;13.948;2022-11-14T03:42:03;6.80;99.90
3994;DHT22;2011;48.238;13.948;2022-11-14T03:44:30;6.80;99.90
3994;DHT22;2011;48.238;13.948;2022-11-14T03:46:59;6.80;99.90
3994;DHT22;2011;48.238;13.948;2022-11-14T03:49:26;6.80;99.90
3994;DHT22;2011;48.238;13.948;2022-11-14T03:51:52;6.80;99.90
3994;DHT22;2011;48.238;13.948;2022-11-14T03:54:19;6.80;99.90
3994;DHT22;2011;48.238;13.948;2022-11-14T03:56:46;6.80;99.90
3994;DHT22;2011;48.238;13.948;2022-11-14T03:59:13;6.90;99.90
3994;DHT22;2011;48.238;13.948;2022-11-14T04:01:40;6.80;99.90
3994;DHT22;2011;48.238;13.948;2022-11-14T04:04:10;6.90;99.90
3994;DHT22;2011;48.238;13.948;2022-11-14T04:06:37;6.90;99.90
3994;DHT22;2011;48.238;13.948;2022-11-14T04:09:04;6.90;99.90
3994;DHT22;2011;48.238;13.948;2022-11-14T04:11:32;6.90;99.90
3994;DHT22;2011;48.238;13.948;2022-11-14T04:13:58;6.90;99.90
3994;DHT22;2011;48.238;13.948;2022-11-14T04:16:25;6.90;99.90
3994;DHT22;2011;48.238;13.948;2022-11-14T04:18:52;6.90;99.90
3994;DHT22;2011;48.238;13.948;2022-11-14T04:21:20;6.90;99.90
3994;DHT22;2011;48.238;13.948;2022-11-14T04:23:47;6.90;99.90
3994;DHT22;2011;48.238;13.948;2022-11-14T04:26:14;6.90;99.90
3994;DHT22;2011;48.238;13.948;2022-11-14T04:28:41;6.90;99.90
3994;DHT22;2011;48.238;13.948;2022-11-14T04:31:08;6.90;99.90
3994;DHT22;2011;48.238;13.948;2022-11-14T04:33:35;6.90;99.90
3994;DHT22;2011;48.238;13.948;2022-11-14T04:36:02;6.90;99.90
3994;DHT22;2011;48.238;13.948;2022-11-14T04:38:30;6.90;99.90
3994;DHT22;2011;48.238;13.948;2022-11-14T04:40:57;7.00;99.90
3994;DHT22;2011;48.238;13.948;2022-11-14T04:43:24;6.90;99.90
3994;DHT22;2011;48.238;13.948;2022-11-14T04:45:51;6.90;99.90
3994;DHT22;2011;48.238;13.948;2022-11-14T04:48:18;7.00;99.90
3994;DHT22;2011;48.238;13.948;2022-11-14T04:50:45;6.90;99.90
3994;DHT22;2011;48.238;13.948;2022-11-14T04:53:12;6.90;99.90
3994;DHT22;2011;48.238;13.948;2022-11-14T04:55:40;6.90;99.90
3994;DHT22;2011;48.238;13.948;2022-11-14T04:58:07;6.90;99.90
3994;DHT22;2011;48.238;13.948;2022-11-14T05:00:34;6.90;99.90
3994;DHT22;2011;48.238;13.948;2022-11-14T05:03:01;6.90;99.90
3994;DHT22;2011;48.238;13.948;2022-11-14T05:05:28;6.90;99.90
3994;DHT22;2011;48.238;13.948;2022-11-14T05:07:55;6.90;99.90
3994;DHT22;2011;48.238;13.948;2022-11-14T05:10:22;6.90;99.90
3994;DHT22;2011;48.238;13.948;2022-11-14T05:12:53;6.90;99.90
3994;DHT22;2011;48.238;13.948;2022-11-14T05:15:20;6.90;99.90
3994;DHT22;2011;48.238;13.948;2022-11-14T05:17:47;6.90;99.90
3994;DHT22;2011;48.238;13.948;2022-11-14T05:20:14;6.90;99.90
3994;DHT22;2011;48.238;13.948;2022-11-14T05:22:41;6.90;99.90
3994;DHT22;2011;48.238;13.948;2022-11-14T05:25:09;6.90;99.90
3994;DHT22;2011;48.238;13.948;2022-11-14T05:27:36;6.90;99.90
3994;DHT22;2011;48.238;13.948;2022-11-14T05:30:05;6.90;99.90
3994;DHT22;2011;48.238;13.948;2022-11-14T05:32:32;6.90;99.90
3994;DHT22;2011;48.238;13.948;2022-11-14T05:34:59;6.90;99.90
3994;DHT22;2011;48.238;13.948;2022-11-14T05:37:26;6.90;99.90
3994;DHT22;2011;48.238;13.948;2022-11-14T05:39:53;6.80;99.90
3994;DHT22;2011;48.238;13.948;2022-11-14T05:42:19;6.80;99.90
3994;DHT22;2011;48.238;13.948;2022-11-14T05:44:46;6.80;99.90
3994;DHT22;2011;48.238;13.948;2022-11-14T05:47:15;6.80;99.90
3994;DHT22;2011;48.238;13.948;2022-11-14T05:49:42;6.70;99.90
3994;DHT22;2011;48.238;13.948;2022-11-14T05:52:09;6.70;99.90
3994;DHT22;2011;48.238;13.948;2022-11-14T05:54:36;6.70;99.90
3994;DHT22;2011;48.238;13.948;2022-11-14T05:57:03;6.70;99.90
3994;DHT22;2011;48.238;13.948;2022-11-14T05:59:30;6.60;99.90
3994;DHT22;2011;48.238;13.948;2022-11-14T06:01:57;6.60;99.90
3994;DHT22;2011;48.238;13.948;2022-11-14T06:04:26;6.60;99.90
3994;DHT22;2011;48.238;13.948;2022-11-14T06:06:52;6.60;99.90
3994;DHT22;2011;48.238;13.948;2022-11-14T06:09:19;6.60;99.90
3994;DHT22;2011;48.238;13.948;2022-11-14T06:11:46;6.50;99.90
3994;DHT22;2011;48.238;13.948;2022-11-14T06:14:13;6.50;99.90
3994;DHT22;2011;48.238;13.948;2022-11-14T06:16:40;6.50;99.90
3994;DHT22;2011;48.238;13.948;2022-11-14T06:19:07;6.50;99.90
3994;DHT22;2011;48.238;13.948;2022-11-14T06:21:35;6.50;99.90
3994;DHT22;2011;48.238;13.948;2022-11-14T06:24:03;6.50;99.90
3994;DHT22;2011;48.238;13.948;2022-11-14T06:26:30;6.50;99.90
3994;DHT22;2011;48.238;13.948;2022-11-14T06:28:58;6.60;99.90
3994;DHT22;2011;48.238;13.948;2022-11-14T06:31:25;6.60;99.90
3994;DHT22;2011;48.238;13.948;2022-11-14T06:33:52;6.50;99.90
3994;DHT22;2011;48.238;13.948;2022-11-14T06:36:19;6.50;99.90
3994;DHT22;2011;48.238;13.948;2022-11-14T06:38:48;6.50;99.90
3994;DHT22;2011;48.238;13.948;2022-11-14T06:41:16;6.50;99.90
3994;DHT22;2011;48.238;13.948;2022-11-14T06:43:45;6.50;99.90
3994;DHT22;2011;48.238;13.948;2022-11-14T06:46:14;6.60;99.90
3994;DHT22;2011;48.238;13.948;2022-11-14T06:48:42;6.60;99.90
3994;DHT22;2011;48.238;13.948;2022-11-14T06:51:10;6.60;99.90
3994;DHT22;2011;48.238;13.948;2022-11-14T06:53:37;6.70;99.90
3994;DHT22;2011;48.238;13.948;2022-11-14T06:56:07;6.80;99.90
3994;DHT22;2011;48.238;13.948;2022-11-14T06:58:36;6.80;99.90
3994;DHT22;2011;48.238;13.948;2022-11-14T07:01:05;6.80;99.90
3994;DHT22;2011;48.238;13.948;2022-11-14T07:03:32;6.90;99.90
3994;DHT22;2011;48.238;13.948;2022-11-14T07:06:00;6.90;99.90
3994;DHT22;2011;48.238;13.948;2022-11-14T07:08:27;6.90;99.90
3994;DHT22;2011;48.238;13.948;2022-11-14T07:11:00;7.00;99.90
3994;DHT22;2011;48.238;13.948;2022-11-14T07:13:28;7.00;99.90
3994;DHT22;2011;48.238;13.948;2022-11-14T07:15:56;7.00;99.90
3994;DHT22;2011;48.238;13.948;2022-11-14T07:18:22;7.10;99.90
3994;DHT22;2011;48.238;13.948;2022-11-14T07:20:50;7.10;99.90
3994;DHT22;2011;48.238;13.948;2022-11-14T07:23:22;7.10;99.90
3994;DHT22;2011;48.238;13.948;2022-11-14T07:25:49;7.20;99.90
3994;DHT22;2011;48.238;13.948;2022-11-14T07:28:15;7.20;99.90
3994;DHT22;2011;48.238;13.948;2022-11-14T07:30:44;7.30;99.90
3994;DHT22;2011;48.238;13.948;2022-11-14T07:33:11;7.30;99.90
3994;DHT22;2011;48.238;13.948;2022-11-14T07:35:38;7.30;99.90
3994;DHT22;2011;48.238;13.948;2022-11-14T07:38:05;7.40;99.90
3994;DHT22;2011;48.238;13.948;2022-11-14T07:40:32;7.40;99.90
3994;DHT22;2011;48.238;13.948;2022-11-14T07:42:59;7.40;99.90
3994;DHT22;2011;48.238;13.948;2022-11-14T07:45:27;7.50;99.90
3994;DHT22;2011;48.238;13.948;2022-11-14T07:47:57;7.50;99.90
3994;DHT22;2011;48.238;13.948;2022-11-14T07:50:24;7.60;99.90
3994;DHT22;2011;48.238;13.948;2022-11-14T07:52:52;7.60;99.90
3994;DHT22;2011;48.238;13.948;2022-11-14T07:55:19;7.70;99.90
3994;DHT22;2011;48.238;13.948;2022-11-14T07:57:46;7.70;99.90
3994;DHT22;2011;48.238;13.948;2022-11-14T08:00:14;7.80;99.90
3994;DHT22;2011;48.238;13.948;2022-11-14T08:02:41;7.90;99.90
3994;DHT22;2011;48.238;13.948;2022-11-14T08:05:09;8.00;99.90
3994;DHT22;2011;48.238;13.948;2022-11-14T08:07:36;8.00;99.90
3994;DHT22;2011;48.238;13.948;2022-11-14T08:10:04;8.10;99.90
3994;DHT22;2011;48.238;13.948;2022-11-14T08:12:31;8.10;99.90
3994;DHT22;2011;48.238;13.948;2022-11-14T08:14:58;8.10;99.90
3994;DHT22;2011;48.238;13.948;2022-11-14T08:17:24;8.20;99.90
3994;DHT22;2011;48.238;13.948;2022-11-14T08:19:51;8.20;99.90
3994;DHT22;2011;48.238;13.948;2022-11-14T08:22:19;8.30;99.90
3994;DHT22;2011;48.238;13.948;2022-11-14T08:24:46;8.40;99.90
3994;DHT22;2011;48.238;13.948;2022-11-14T08:27:13;8.40;99.90
3994;DHT22;2011;48.238;13.948;2022-11-14T08:29:40;8.50;99.90
3994;DHT22;2011;48.238;13.948;2022-11-14T08:32:07;8.50;99.90
3994;DHT22;2011;48.238;13.948;2022-11-14T08:34:34;8.50;99.90
3994;DHT22;2011;48.238;13.948;2022-11-14T08:37:01;8.60;99.90
3994;DHT22;2011;48.238;13.948;2022-11-14T08:39:30;8.70;99.90
3994;DHT22;2011;48.238;13.948;2022-11-14T08:41:57;8.80;99.90
3994;DHT22;2011;48.238;13.948;2022-11-14T08:44:24;8.90;99.90
3994;DHT22;2011;48.238;13.948;2022-11-14T08:46:50;8.90;99.90
3994;DHT22;2011;48.238;13.948;2022-11-14T08:49:17;9.00;99.90
3994;DHT22;2011;48.238;13.948;2022-11-14T08:51:44;9.00;99.90
3994;DHT22;2011;48.238;13.948;2022-11-14T08:54:11;9.00;99.90
3994;DHT22;2011;48.238;13.948;2022-11-14T08:56:39;9.00;99.90
3994;DHT22;2011;48.238;13.948;2022-11-14T08:59:06;9.00;99.90
3994;DHT22;2011;48.238;13.948;2022-11-14T09:01:33;9.00;99.90
3994;DHT22;2011;48.238;13.948;2022-11-14T09:04:00;9.00;99.90
3994;DHT22;2011;48.238;13.948;2022-11-14T09:06:27;9.10;99.90
3994;DHT22;2011;48.238;13.948;2022-11-14T09:08:54;9.30;99.90
3994;DHT22;2011;48.238;13.948;2022-11-14T09:11:21;9.30;99.90
3994;DHT22;2011;48.238;13.948;2022-11-14T09:13:49;9.40;99.90
3994;DHT22;2011;48.238;13.948;2022-11-14T09:16:16;9.50;99.90
3994;DHT22;2011;48.238;13.948;2022-11-14T09:18:43;9.60;99.90
3994;DHT22;2011;48.238;13.948;2022-11-14T09:21:10;9.60;99.90
3994;DHT22;2011;48.238;13.948;2022-11-14T09:23:37;9.70;99.90
3994;DHT22;2011;48.238;13.948;2022-11-14T09:26:04;9.70;99.90
3994;DHT22;2011;48.238;13.948;2022-11-14T09:28:32;9.80;99.90
3994;DHT22;2011;48.238;13.948;2022-11-14T09:31:01;9.90;99.90
3994;DHT22;2011;48.238;13.948;2022-11-14T09:33:28;9.80;99.90
3994;DHT22;2011;48.238;13.948;2022-11-14T09:35:56;9.90;99.90
3994;DHT22;2011;48.238;13.948;2022-11-14T09:38:23;10.00;99.90
3994;DHT22;2011;48.238;13.948;2022-11-14T09:40:59;10.10;99.90
3994;DHT22;2011;48.238;13.948;2022-11-14T09:43:37;10.20;99.90
3994;DHT22;2011;48.238;13.948;2022-11-14T09:46:15;10.20;99.90
3994;DHT22;2011;48.238;13.948;2022-11-14T09:48:43;10.30;99.90
3994;DHT22;2011;48.238;13.948;2022-11-14T09:51:15;10.40;99.90
3994;DHT22;2011;48.238;13.948;2022-11-14T09:53:50;10.40;99.90
3994;DHT22;2011;48.238;13.948;2022-11-14T09:56:21;10.50;99.90
3994;DHT22;2011;48.238;13.948;2022-11-14T09:58:50;10.50;99.90
3994;DHT22;2011;48.238;13.948;2022-11-14T10:01:27;10.50;99.90
3994;DHT22;2011;48.238;13.948;2022-11-14T10:04:03;10.50;99.90
3994;DHT22;2011;48.238;13.948;2022-11-14T10:06:41;10.50;99.90
3994;DHT22;2011;48.238;13.948;2022-11-14T10:09:28;10.60;99.90
3994;DHT22;2011;48.238;13.948;2022-11-14T10:12:03;10.70;99.90
3994;DHT22;2011;48.238;13.948;2022-11-14T10:14:44;10.70;99.90
3994;DHT22;2011;48.238;13.948;2022-11-14T10:17:28;10.70;99.90
3994;DHT22;2011;48.238;13.948;2022-11-14T10:20:08;10.60;99.90
3994;DHT22;2011;48.238;13.948;2022-11-14T10:22:56;10.70;99.90
3994;DHT22;2011;48.238;13.948;2022-11-14T10:25:29;10.80;99.90
3994;DHT22;2011;48.238;13.948;2022-11-14T10:28:14;10.90;99.90
3994;DHT22;2011;48.238;13.948;2022-11-14T10:30:50;11.00;99.90
3994;DHT22;2011;48.238;13.948;2022-11-14T10:33:29;11.00;99.90
3994;DHT22;2011;48.238;13.948;2022-11-14T10:36:04;10.90;99.90
3994;DHT22;2011;48.238;13.948;2022-11-14T10:38:38;10.90;99.90
3994;DHT22;2011;48.238;13.948;2022-11-14T10:41:08;10.80;99.90
3994;DHT22;2011;48.238;13.948;2022-11-14T10:43:38;10.80;99.90
3994;DHT22;2011;48.238;13.948;2022-11-14T10:46:11;10.70;99.90
3994;DHT22;2011;48.238;13.948;2022-11-14T10:48:41;10.80;99.90
3994;DHT22;2011;48.238;13.948;2022-11-14T10:51:17;11.00;99.90
3994;DHT22;2011;48.238;13.948;2022-11-14T10:53:50;11.20;99.90
3994;DHT22;2011;48.238;13.948;2022-11-14T10:56:18;11.50;99.90
3994;DHT22;2011;48.238;13.948;2022-11-14T10:58:45;11.80;99.90
3994;DHT22;2011;48.238;13.948;2022-11-14T11:01:32;12.00;99.90
3994;DHT22;2011;48.238;13.948;2022-11-14T11:04:12;12.00;99.90
3994;DHT22;2011;48.238;13.948;2022-11-14T11:06:40;11.80;99.90
3994;DHT22;2011;48.238;13.948;2022-11-14T11:09:07;11.80;99.90
3994;DHT22;2011;48.238;13.948;2022-11-14T11:11:54;11.80;99.90
3994;DHT22;2011;48.238;13.948;2022-11-14T11:14:22;11.70;99.90
3994;DHT22;2011;48.238;13.948;2022-11-14T11:16:49;11.70;99.90
3994;DHT22;2011;48.238;13.948;2022-11-14T11:19:34;11.70;99.90
3994;DHT22;2011;48.238;13.948;2022-11-14T11:22:01;11.60;99.90
3994;DHT22;2011;48.238;13.948;2022-11-14T11:24:33;11.60;99.90
3994;DHT22;2011;48.238;13.948;2022-11-14T11:27:22;11.70;99.90
3994;DHT22;2011;48.238;13.948;2022-11-14T11:30:08;11.70;99.90
3994;DHT22;2011;48.238;13.948;2022-11-14T11:32:41;11.70;99.90
3994;DHT22;2011;48.238;13.948;2022-11-14T11:35:11;11.80;99.90
3994;DHT22;2011;48.238;13.948;2022-11-14T11:37:45;11.90;99.90
3994;DHT22;2011;48.238;13.948;2022-11-14T11:40:19;12.00;99.90
3994;DHT22;2011;48.238;13.948;2022-11-14T11:42:52;12.10;99.90
3994;DHT22;2011;48.238;13.948;2022-11-14T11:45:22;12.10;99.90
3994;DHT22;2011;48.238;13.948;2022-11-14T11:47:54;12.20;99.90
3994;DHT22;2011;48.238;13.948;2022-11-14T11:50:24;12.20;99.90
3994;DHT22;2011;48.238;13.948;2022-11-14T11:53:00;12.10;99.90
3994;DHT22;2011;48.238;13.948;2022-11-14T11:55:33;12.10;99.90
3994;DHT22;2011;48.238;13.948;2022-11-14T11:58:05;12.10;99.90
3994;DHT22;2011;48.238;13.948;2022-11-14T12:00:37;12.10;99.90
3994;DHT22;2011;48.238;13.948;2022-11-14T12:03:09;12.10;99.90
3994;DHT22;2011;48.238;13.948;2022-11-14T12:05:45;12.20;99.90
3994;DHT22;2011;48.238;13.948;2022-11-14T12:08:23;12.20;99.90
3994;DHT22;2011;48.238;13.948;2022-11-14T12:10:52;12.20;99.90
3994;DHT22;2011;48.238;13.948;2022-11-14T12:13:43;12.20;99.90
3994;DHT22;2011;48.238;13.948;2022-11-14T12:16:23;12.30;99.90
3994;DHT22;2011;48.238;13.948;2022-11-14T12:19:09;12.40;99.90
3994;DHT22;2011;48.238;13.948;2022-11-14T12:21:58;12.50;99.90
3994;DHT22;2011;48.238;13.948;2022-11-14T12:25:00;12.50;99.90
3994;DHT22;2011;48.238;13.948;2022-11-14T12:27:39;12.60;99.90
3994;DHT22;2011;48.238;13.948;2022-11-14T12:30:12;12.50;99.90
3994;DHT22;2011;48.238;13.948;2022-11-14T12:32:42;12.60;99.90
3994;DHT22;2011;48.238;13.948;2022-11-14T12:35:17;12.50;99.90
3994;DHT22;2011;48.238;13.948;2022-11-14T12:37:48;12.50;99.90
3994;DHT22;2011;48.238;13.948;2022-11-14T12:40:26;12.50;99.90
3994;DHT22;2011;48.238;13.948;2022-11-14T12:42:55;12.50;99.90
3994;DHT22;2011;48.238;13.948;2022-11-14T12:48:33;12.60;99.90
3994;DHT22;2011;48.238;13.948;2022-11-14T12:51:02;12.70;99.90
3994;DHT22;2011;48.238;13.948;2022-11-14T12:53:43;12.70;99.90
3994;DHT22;2011;48.238;13.948;2022-11-14T12:59:27;12.90;99.90
3994;DHT22;2011;48.238;13.948;2022-11-14T13:02:24;13.10;99.90
3994;DHT22;2011;48.238;13.948;2022-11-14T13:05:20;13.30;99.90
3994;DHT22;2011;48.238;13.948;2022-11-14T13:07:59;13.30;99.90
3994;DHT22;2011;48.238;13.948;2022-11-14T13:10:36;13.30;99.90
3994;DHT22;2011;48.238;13.948;2022-11-14T13:13:06;13.40;99.90
3994;DHT22;2011;48.238;13.948;2022-11-14T13:15:51;13.60;99.90
3994;DHT22;2011;48.238;13.948;2022-11-14T13:18:50;13.60;99.90
3994;DHT22;2011;48.238;13.948;2022-11-14T13:21:35;13.70;99.90
3994;DHT22;2011;48.238;13.948;2022-11-14T13:24:13;13.70;99.90
3994;DHT22;2011;48.238;13.948;2022-11-14T13:26:52;13.70;99.90
3994;DHT22;2011;48.238;13.948;2022-11-14T13:29:52;13.80;99.90
3994;DHT22;2011;48.238;13.948;2022-11-14T13:35:44;13.90;99.90
3994;DHT22;2011;48.238;13.948;2022-11-14T13:41:33;14.10;99.90
3994;DHT22;2011;48.238;13.948;2022-11-14T13:44:26;14.20;99.90
3994;DHT22;2011;48.238;13.948;2022-11-14T13:47:18;14.30;99.90
3994;DHT22;2011;48.238;13.948;2022-11-14T13:49:55;14.30;99.90
3994;DHT22;2011;48.238;13.948;2022-11-14T13:52:27;14.40;99.90
3994;DHT22;2011;48.238;13.948;2022-11-14T13:54:54;14.30;99.90
3994;DHT22;2011;48.238;13.948;2022-11-14T13:57:32;14.10;99.90
3994;DHT22;2011;48.238;13.948;2022-11-14T14:00:07;14.00;99.90
3994;DHT22;2011;48.238;13.948;2022-11-14T14:03:05;13.90;99.90
3994;DHT22;2011;48.238;13.948;2022-11-14T14:05:47;13.80;99.90
3994;DHT22;2011;48.238;13.948;2022-11-14T14:08:32;13.70;99.90
3994;DHT22;2011;48.238;13.948;2022-11-14T14:11:19;13.60;99.90
3994;DHT22;2011;48.238;13.948;2022-11-14T14:13:58;13.70;99.90
3994;DHT22;2011;48.238;13.948;2022-11-14T14:16:35;13.60;99.90
3994;DHT22;2011;48.238;13.948;2022-11-14T14:19:11;13.60;99.90
3994;DHT22;2011;48.238;13.948;2022-11-14T14:21:46;13.60;99.90
3994;DHT22;2011;48.238;13.948;2022-11-14T14:24:25;13.50;99.90
3994;DHT22;2011;48.238;13.948;2022-11-14T14:27:00;13.40;99.90
3994;DHT22;2011;48.238;13.948;2022-11-14T14:29:35;13.40;99.90
3994;DHT22;2011;48.238;13.948;2022-11-14T14:32:11;13.30;99.90
3994;DHT22;2011;48.238;13.948;2022-11-14T14:34:38;13.30;99.90
3994;DHT22;2011;48.238;13.948;2022-11-14T14:37:15;13.20;99.90
3994;DHT22;2011;48.238;13.948;2022-11-14T14:39:55;13.20;99.90
3994;DHT22;2011;48.238;13.948;2022-11-14T14:42:23;13.10;99.90
3994;DHT22;2011;48.238;13.948;2022-11-14T14:44:50;13.10;99.90
3994;DHT22;2011;48.238;13.948;2022-11-14T14:47:32;13.00;99.90
3994;DHT22;2011;48.238;13.948;2022-11-14T14:50:00;13.00;99.90
3994;DHT22;2011;48.238;13.948;2022-11-14T14:52:29;12.90;99.90
3994;DHT22;2011;48.238;13.948;2022-11-14T14:54:57;12.90;99.90
3994;DHT22;2011;48.238;13.948;2022-11-14T14:57:27;12.80;99.90
3994;DHT22;2011;48.238;13.948;2022-11-14T14:59:58;12.80;99.90
3994;DHT22;2011;48.238;13.948;2022-11-14T15:02:28;12.80;99.90
3994;DHT22;2011;48.238;13.948;2022-11-14T15:04:55;12.80;99.90
3994;DHT22;2011;48.238;13.948;2022-11-14T15:07:24;12.80;99.90
3994;DHT22;2011;48.238;13.948;2022-11-14T15:09:53;12.80;99.90
3994;DHT22;2011;48.238;13.948;2022-11-14T15:12:22;12.70;99.90
3994;DHT22;2011;48.238;13.948;2022-11-14T15:14:51;12.70;99.90
3994;DHT22;2011;48.238;13.948;2022-11-14T15:17:19;12.70;99.90
3994;DHT22;2011;48.238;13.948;2022-11-14T15:19:50;12.70;99.90
3994;DHT22;2011;48.238;13.948;2022-11-14T15:22:25;12.80;99.90
3994;DHT22;2011;48.238;13.948;2022-11-14T15:25:17;12.70;99.90
3994;DHT22;2011;48.238;13.948;2022-11-14T15:27:46;12.70;99.90
3994;DHT22;2011;48.238;13.948;2022-11-14T15:30:23;12.60;99.90
3994;DHT22;2011;48.238;13.948;2022-11-14T15:32:52;12.50;99.90
3994;DHT22;2011;48.238;13.948;2022-11-14T15:35:27;12.50;99.90
3994;DHT22;2011;48.238;13.948;2022-11-14T15:38:03;12.40;99.90
3994;DHT22;2011;48.238;13.948;2022-11-14T15:40:31;12.40;99.90
3994;DHT22;2011;48.238;13.948;2022-11-14T15:42:58;12.30;99.90
3994;DHT22;2011;48.238;13.948;2022-11-14T15:45:27;12.20;99.90
3994;DHT22;2011;48.238;13.948;2022-11-14T15:47:58;12.20;99.90
3994;DHT22;2011;48.238;13.948;2022-11-14T15:50:30;12.20;99.90
3994;DHT22;2011;48.238;13.948;2022-11-14T15:52:59;12.10;99.90
3994;DHT22;2011;48.238;13.948;2022-11-14T15:55:26;12.00;99.90
3994;DHT22;2011;48.238;13.948;2022-11-14T15:57:53;12.00;99.90
3994;DHT22;2011;48.238;13.948;2022-11-14T16:00:21;12.00;99.90
3994;DHT22;2011;48.238;13.948;2022-11-14T16:02:50;11.90;99.90
3994;DHT22;2011;48.238;13.948;2022-11-14T16:05:20;11.90;99.90
3994;DHT22;2011;48.238;13.948;2022-11-14T16:07:50;11.80;99.90
3994;DHT22;2011;48.238;13.948;2022-11-14T16:10:18;11.80;99.90
3994;DHT22;2011;48.238;13.948;2022-11-14T16:12:45;11.70;99.90
3994;DHT22;2011;48.238;13.948;2022-11-14T16:15:12;11.60;99.90
3994;DHT22;2011;48.238;13.948;2022-11-14T16:17:41;11.60;99.90
3994;DHT22;2011;48.238;13.948;2022-11-14T16:20:13;11.50;99.90
3994;DHT22;2011;48.238;13.948;2022-11-14T16:22:41;11.50;99.90
3994;DHT22;2011;48.238;13.948;2022-11-14T16:25:14;11.50;99.90
3994;DHT22;2011;48.238;13.948;2022-11-14T16:27:42;11.40;99.90